createdAt,value
2023-12-31T00:02:16.726Z,56.43
2023-12-31T00:04:43.841Z,56.44
2023-12-31T00:07:10.796Z,56.41
2023-12-31T00:09:40.005Z,56.40
2023-12-31T00:12:07.464Z,56.29
2023-12-31T00:14:34.610Z,56.38
2023-12-31T00:17:01.567Z,56.33
2023-12-31T00:19:28.814Z,56.28
2023-12-31T00:21:55.853Z,56.31
2023-12-31T00:24:22.902Z,56.25
2023-12-31T00:26:49.821Z,56.29
2023-12-31T00:29:16.892Z,56.41
2023-12-31T00:31:43.984Z,56.27
2023-12-31T00:34:12.025Z,56.28
2023-12-31T00:36:39.700Z,56.25
2023-12-31T00:39:06.886Z,56.25
2023-12-31T00:41:33.978Z,56.29
2023-12-31T00:44:01.020Z,56.21
2023-12-31T00:46:28.137Z,56.16
2023-12-31T00:48:55.212Z,56.24
2023-12-31T00:51:22.661Z,56.20
2023-12-31T00:53:49.609Z,56.17
2023-12-31T00:56:16.679Z,56.19
2023-12-31T00:58:44.607Z,56.20
2023-12-31T01:01:11.645Z,56.15
2023-12-31T01:03:39.017Z,56.19
2023-12-31T01:06:09.138Z,56.20
2023-12-31T01:08:36.726Z,56.14
2023-12-31T01:11:03.806Z,56.10
2023-12-31T01:13:32.293Z,56.08
2023-12-31T01:16:00.231Z,56.08
2023-12-31T01:18:27.505Z,56.17
2023-12-31T01:20:55.293Z,56.02
2023-12-31T01:23:22.295Z,56.05
2023-12-31T01:25:49.385Z,55.96
2023-12-31T01:28:16.405Z,55.98
2023-12-31T01:30:44.287Z,56.09
2023-12-31T01:33:11.385Z,56.00
2023-12-31T01:35:38.626Z,55.83
2023-12-31T01:38:05.704Z,55.91
2023-12-31T01:40:32.804Z,55.92
2023-12-31T01:42:59.939Z,55.87
2023-12-31T01:45:27.100Z,55.93
2023-12-31T01:47:54.440Z,55.92
2023-12-31T01:50:23.678Z,55.92
2023-12-31T01:52:53.461Z,55.99
2023-12-31T01:55:21.266Z,55.91
2023-12-31T01:57:49.932Z,55.97
2023-12-31T02:00:18.015Z,55.98
2023-12-31T02:02:48.971Z,55.84
2023-12-31T02:05:16.580Z,55.91
2023-12-31T02:07:43.846Z,55.83
2023-12-31T02:10:11.431Z,55.78
2023-12-31T02:12:39.932Z,55.70
2023-12-31T02:15:08.016Z,55.69
2023-12-31T02:17:35.485Z,55.75
2023-12-31T02:20:02.719Z,55.72
2023-12-31T02:22:30.241Z,55.66
2023-12-31T02:25:06.375Z,55.75
2023-12-31T02:27:33.900Z,55.56
2023-12-31T02:30:04.079Z,55.59
2023-12-31T02:32:31.329Z,55.68
2023-12-31T02:34:58.930Z,55.58
2023-12-31T02:37:26.450Z,55.61
2023-12-31T02:39:56.405Z,55.64
2023-12-31T02:42:23.435Z,55.53
2023-12-31T02:44:50.710Z,55.57
2023-12-31T02:47:17.854Z,55.57
2023-12-31T02:49:45.006Z,55.62
2023-12-31T02:52:13.224Z,55.41
2023-12-31T02:54:40.330Z,55.56
2023-12-31T02:57:08.585Z,55.53
2023-12-31T02:59:35.724Z,55.46
2023-12-31T03:02:04.145Z,55.48
2023-12-31T03:04:31.547Z,55.50
2023-12-31T03:06:59.254Z,55.36
2023-12-31T03:09:26.430Z,55.50
2023-12-31T03:11:53.471Z,55.37
2023-12-31T03:14:20.593Z,55.35
2023-12-31T03:16:48.168Z,55.42
2023-12-31T03:19:16.255Z,55.32
2023-12-31T03:21:43.813Z,55.33
2023-12-31T03:24:12.067Z,55.35
2023-12-31T03:26:38.996Z,55.41
2023-12-31T03:29:06.016Z,55.35
2023-12-31T03:31:33.332Z,55.27
2023-12-31T03:34:00.619Z,55.32
2023-12-31T03:36:27.928Z,55.19
2023-12-31T03:38:56.006Z,55.28
2023-12-31T03:41:24.417Z,55.18
2023-12-31T03:43:51.334Z,55.24
2023-12-31T03:46:18.703Z,55.31
2023-12-31T03:48:45.751Z,55.23
2023-12-31T03:51:12.869Z,55.22
2023-12-31T03:53:39.938Z,55.09
2023-12-31T03:56:09.834Z,55.24
2023-12-31T03:58:38.444Z,55.13
2023-12-31T04:01:05.832Z,55.08
2023-12-31T04:03:33.579Z,55.24
2023-12-31T04:06:00.602Z,55.15
2023-12-31T04:08:27.784Z,55.07
2023-12-31T04:10:54.969Z,55.00
2023-12-31T04:13:22.823Z,54.95
2023-12-31T04:15:49.936Z,54.91
2023-12-31T04:18:18.343Z,54.96
2023-12-31T04:20:45.527Z,55.04
2023-12-31T04:23:12.772Z,54.91
2023-12-31T04:25:40.161Z,54.93
2023-12-31T04:28:07.416Z,54.92
2023-12-31T04:30:34.664Z,54.93
2023-12-31T04:33:02.810Z,54.90
2023-12-31T04:35:31.593Z,54.92
2023-12-31T04:37:58.583Z,54.96
2023-12-31T04:40:25.635Z,55.02
2023-12-31T04:42:52.842Z,54.97
2023-12-31T04:45:21.671Z,54.98
2023-12-31T04:47:48.908Z,54.90
2023-12-31T04:50:16.169Z,54.93
2023-12-31T04:52:43.161Z,54.83
2023-12-31T04:55:10.606Z,54.82
2023-12-31T04:57:37.866Z,54.64
2023-12-31T05:00:06.053Z,54.70
2023-12-31T05:02:33.088Z,54.59
2023-12-31T05:05:00.447Z,54.65
2023-12-31T05:07:27.468Z,54.62
2023-12-31T05:09:54.400Z,54.50
2023-12-31T05:12:21.587Z,54.41
2023-12-31T05:14:48.550Z,54.61
2023-12-31T05:17:15.897Z,54.43
2023-12-31T05:19:43.237Z,54.51
2023-12-31T05:22:10.250Z,54.54
2023-12-31T05:24:37.471Z,54.43
2023-12-31T05:27:04.826Z,54.45
2023-12-31T05:29:31.709Z,54.25
2023-12-31T05:31:58.702Z,54.40
2023-12-31T05:34:25.700Z,54.28
2023-12-31T05:36:52.655Z,54.35
2023-12-31T05:39:19.810Z,54.19
2023-12-31T05:41:47.495Z,54.32
2023-12-31T05:44:14.455Z,54.15
2023-12-31T05:46:41.437Z,54.25
2023-12-31T05:49:08.717Z,54.07
2023-12-31T05:51:35.917Z,54.10
2023-12-31T05:54:03.007Z,54.03
2023-12-31T05:56:30.028Z,54.04
2023-12-31T05:58:57.166Z,54.08
2023-12-31T06:01:24.519Z,53.97
2023-12-31T06:03:51.745Z,54.11
2023-12-31T06:06:18.812Z,54.22
2023-12-31T06:08:45.872Z,53.99
2023-12-31T06:11:12.821Z,54.15
2023-12-31T06:13:39.813Z,54.18
2023-12-31T06:16:07.162Z,54.11
2023-12-31T06:18:34.155Z,54.14
2023-12-31T06:21:01.107Z,54.31
2023-12-31T06:23:28.106Z,54.19
2023-12-31T06:25:55.595Z,54.36
2023-12-31T06:28:22.635Z,54.45
2023-12-31T06:30:49.793Z,54.24
2023-12-31T06:33:17.024Z,54.35
2023-12-31T06:35:44.308Z,54.32
2023-12-31T06:38:11.352Z,54.21
2023-12-31T06:40:38.341Z,54.30
2023-12-31T06:43:05.846Z,54.20
2023-12-31T06:45:34.412Z,54.27
2023-12-31T06:48:03.097Z,54.22
2023-12-31T06:50:30.155Z,54.16
2023-12-31T06:52:58.142Z,54.30
2023-12-31T06:55:25.251Z,54.41
2023-12-31T06:57:52.392Z,54.27
2023-12-31T07:00:21.238Z,54.48
2023-12-31T07:02:48.995Z,54.43
2023-12-31T07:05:16.600Z,54.55
2023-12-31T07:07:44.242Z,54.66
2023-12-31T07:10:11.334Z,54.52
2023-12-31T07:12:38.194Z,54.60
2023-12-31T07:15:05.628Z,54.60
2023-12-31T07:17:32.720Z,54.59
2023-12-31T07:20:00.390Z,54.55
2023-12-31T07:22:27.543Z,54.46
2023-12-31T07:24:55.240Z,54.47
2023-12-31T07:27:22.174Z,54.48
2023-12-31T07:29:49.517Z,54.38
2023-12-31T07:32:16.529Z,54.37
2023-12-31T07:34:43.459Z,54.20
2023-12-31T07:37:10.930Z,54.35
2023-12-31T07:39:37.900Z,54.38
2023-12-31T07:42:07.918Z,54.19
2023-12-31T07:44:34.861Z,54.34
2023-12-31T07:47:04.078Z,54.24
2023-12-31T07:49:31.849Z,54.21
2023-12-31T07:51:59.126Z,54.11
2023-12-31T07:54:27.128Z,54.17
2023-12-31T07:56:54.039Z,54.06
2023-12-31T07:59:21.550Z,54.01
2023-12-31T08:01:48.731Z,54.14
2023-12-31T08:04:16.377Z,54.07
2023-12-31T08:06:45.222Z,53.99
2023-12-31T08:09:12.833Z,53.91
2023-12-31T08:11:40.195Z,54.03
2023-12-31T08:14:07.316Z,53.90
2023-12-31T08:16:34.597Z,53.90
2023-12-31T08:19:03.327Z,53.80
2023-12-31T08:21:30.386Z,54.05
2023-12-31T08:23:57.349Z,53.84
2023-12-31T08:26:24.441Z,54.14
2023-12-31T08:28:51.658Z,53.93
2023-12-31T08:31:18.928Z,54.12
2023-12-31T08:33:46.087Z,54.02
2023-12-31T08:36:13.159Z,53.95
2023-12-31T08:38:40.255Z,54.01
2023-12-31T08:41:07.621Z,53.90
2023-12-31T08:43:37.308Z,53.91
2023-12-31T08:46:05.379Z,53.84
2023-12-31T08:48:32.678Z,54.02
2023-12-31T08:51:00.358Z,53.96
2023-12-31T08:53:27.385Z,54.04
2023-12-31T08:55:54.556Z,53.91
2023-12-31T08:58:22.102Z,54.10
2023-12-31T09:00:49.320Z,54.09
2023-12-31T09:03:16.690Z,54.10
2023-12-31T09:05:49.686Z,54.23
2023-12-31T09:08:17.146Z,54.28
2023-12-31T09:10:44.312Z,54.35
2023-12-31T09:13:11.401Z,54.25
2023-12-31T09:15:38.758Z,54.28
2023-12-31T09:18:07.494Z,54.23
2023-12-31T09:20:35.744Z,54.32
2023-12-31T09:23:02.977Z,54.29
2023-12-31T09:25:30.373Z,54.20
2023-12-31T09:27:57.375Z,54.37
2023-12-31T09:30:24.734Z,54.57
2023-12-31T09:32:51.913Z,54.66
2023-12-31T09:35:18.893Z,54.47
2023-12-31T09:37:46.049Z,54.58
2023-12-31T09:40:13.743Z,54.36
2023-12-31T09:42:51.619Z,54.45
2023-12-31T09:45:22.845Z,54.44
2023-12-31T09:47:51.327Z,54.31
2023-12-31T09:50:20.975Z,54.34
2023-12-31T09:52:49.521Z,54.32
2023-12-31T09:55:20.860Z,54.44
2023-12-31T09:57:49.082Z,54.47
2023-12-31T10:00:16.851Z,54.32
2023-12-31T10:02:47.205Z,54.44
2023-12-31T10:05:16.864Z,54.23
2023-12-31T10:07:46.240Z,54.31
2023-12-31T10:10:15.763Z,54.48
2023-12-31T10:12:43.163Z,54.25
2023-12-31T10:15:10.620Z,54.29
2023-12-31T10:17:39.643Z,54.34
2023-12-31T10:20:09.436Z,54.22
2023-12-31T10:22:38.293Z,54.25
2023-12-31T10:25:16.492Z,54.31
2023-12-31T10:27:50.086Z,54.30
2023-12-31T10:30:17.630Z,54.26
2023-12-31T10:32:44.826Z,54.11
2023-12-31T10:35:12.214Z,54.09
2023-12-31T10:37:39.536Z,54.28
2023-12-31T10:40:17.914Z,54.29
2023-12-31T10:42:49.714Z,54.42
2023-12-31T10:45:20.519Z,54.40
2023-12-31T10:47:51.964Z,54.45
2023-12-31T10:50:23.966Z,54.43
2023-12-31T10:52:56.859Z,54.38
2023-12-31T10:55:27.095Z,54.46
2023-12-31T10:57:54.930Z,54.45
2023-12-31T11:00:23.955Z,54.41
2023-12-31T11:02:52.711Z,54.44
2023-12-31T11:05:23.460Z,54.37
2023-12-31T11:07:50.899Z,54.38
2023-12-31T11:10:18.656Z,54.43
2023-12-31T11:12:50.227Z,54.49
2023-12-31T11:15:20.353Z,54.51
2023-12-31T11:18:11.201Z,54.53
2023-12-31T11:20:53.610Z,54.49
2023-12-31T11:23:25.232Z,54.42
2023-12-31T11:25:52.981Z,54.34
2023-12-31T11:28:20.405Z,54.38
2023-12-31T11:30:56.939Z,54.32
2023-12-31T11:33:35.813Z,54.26
2023-12-31T11:36:06.619Z,54.28
2023-12-31T11:39:04.034Z,54.37
2023-12-31T11:41:51.234Z,54.20
2023-12-31T11:44:47.335Z,54.28
2023-12-31T11:47:23.047Z,54.13
2023-12-31T11:50:21.538Z,54.27
2023-12-31T11:52:51.302Z,54.06
2023-12-31T11:55:20.627Z,54.15
2023-12-31T11:57:50.975Z,54.21
2023-12-31T12:00:18.159Z,54.18
2023-12-31T12:02:48.494Z,54.15
2023-12-31T12:05:15.619Z,53.98
2023-12-31T12:07:42.888Z,53.99
2023-12-31T12:10:10.900Z,54.08
2023-12-31T12:12:38.730Z,53.98
2023-12-31T12:15:06.381Z,54.01
2023-12-31T12:17:34.922Z,53.99
2023-12-31T12:20:02.020Z,54.04
2023-12-31T12:22:29.441Z,54.04
2023-12-31T12:24:58.044Z,53.89
2023-12-31T12:27:25.201Z,53.88
2023-12-31T12:29:53.689Z,53.76
2023-12-31T12:32:20.841Z,53.92
2023-12-31T12:34:51.621Z,54.08
2023-12-31T12:37:23.784Z,53.99
2023-12-31T12:39:59.015Z,54.06
2023-12-31T12:42:29.462Z,54.16
2023-12-31T12:44:58.750Z,54.36
2023-12-31T12:47:25.887Z,54.47
2023-12-31T12:49:52.871Z,54.53
2023-12-31T12:52:19.860Z,54.57
2023-12-31T12:54:47.192Z,54.58
2023-12-31T12:57:14.593Z,54.64
2023-12-31T12:59:41.558Z,54.61
2023-12-31T13:02:11.555Z,54.66
2023-12-31T13:04:38.530Z,54.62
2023-12-31T13:07:05.646Z,54.80
2023-12-31T13:09:36.650Z,54.79
2023-12-31T13:12:04.725Z,54.82
2023-12-31T13:14:33.602Z,54.80
2023-12-31T13:17:00.612Z,54.85
2023-12-31T13:19:29.620Z,54.97
2023-12-31T13:21:57.260Z,54.95
2023-12-31T13:24:24.403Z,54.95
2023-12-31T13:26:53.091Z,54.83
2023-12-31T13:29:20.553Z,54.75
2023-12-31T13:31:48.009Z,54.88
2023-12-31T13:34:15.164Z,54.91
2023-12-31T13:36:42.199Z,54.89
2023-12-31T13:39:09.802Z,54.80
2023-12-31T13:41:36.936Z,54.86
2023-12-31T13:44:04.105Z,54.95
2023-12-31T13:46:31.244Z,55.00
2023-12-31T13:48:58.717Z,55.13
2023-12-31T13:51:25.894Z,55.05
2023-12-31T13:53:52.909Z,55.02
2023-12-31T13:56:20.025Z,55.19
2023-12-31T13:58:47.098Z,55.09
2023-12-31T14:01:14.370Z,55.16
2023-12-31T14:03:41.805Z,54.97
2023-12-31T14:06:09.089Z,55.03
2023-12-31T14:08:36.484Z,55.08
2023-12-31T14:11:04.238Z,55.13
2023-12-31T14:13:31.408Z,55.26
2023-12-31T14:15:59.022Z,55.23
2023-12-31T14:18:26.103Z,55.41
2023-12-31T14:20:53.300Z,55.24
2023-12-31T14:23:20.503Z,55.37
2023-12-31T14:25:47.562Z,55.35
2023-12-31T14:28:14.906Z,55.26
2023-12-31T14:30:42.421Z,55.37
2023-12-31T14:33:10.079Z,55.37
2023-12-31T14:35:37.283Z,55.40
2023-12-31T14:38:05.598Z,55.47
2023-12-31T14:40:32.663Z,55.55
2023-12-31T14:43:00.049Z,55.62
2023-12-31T14:45:27.012Z,55.49
2023-12-31T14:47:54.079Z,55.52
2023-12-31T14:50:21.384Z,55.47
2023-12-31T14:52:49.944Z,55.69
2023-12-31T14:55:19.235Z,55.65
2023-12-31T14:57:46.346Z,55.51
2023-12-31T15:00:14.005Z,55.53
2023-12-31T15:02:43.233Z,55.69
2023-12-31T15:05:17.116Z,55.68
2023-12-31T15:07:45.784Z,55.59
2023-12-31T15:10:12.981Z,55.59
2023-12-31T15:12:41.224Z,55.74
2023-12-31T15:15:11.676Z,55.56
2023-12-31T15:17:40.037Z,55.67
2023-12-31T15:20:07.714Z,55.74
2023-12-31T15:22:35.044Z,55.60
2023-12-31T15:25:02.116Z,55.69
2023-12-31T15:27:31.973Z,55.78
2023-12-31T15:29:59.074Z,55.70
2023-12-31T15:32:26.156Z,55.71
2023-12-31T15:34:53.314Z,55.64
2023-12-31T15:37:20.407Z,55.74
2023-12-31T15:39:47.453Z,55.69
2023-12-31T15:42:14.413Z,55.73
2023-12-31T15:44:41.754Z,55.72
2023-12-31T15:47:08.918Z,55.83
2023-12-31T15:49:36.720Z,55.69
2023-12-31T15:52:04.764Z,55.76
2023-12-31T15:54:32.703Z,55.73
2023-12-31T15:57:03.578Z,55.68
2023-12-31T15:59:34.561Z,55.67
2023-12-31T16:02:03.985Z,55.53
2023-12-31T16:04:32.469Z,55.29
2023-12-31T16:07:02.150Z,55.19
2023-12-31T16:09:29.151Z,55.12
2023-12-31T16:11:56.183Z,55.08
2023-12-31T16:14:24.264Z,54.89
2023-12-31T16:16:51.509Z,54.89
2023-12-31T16:19:18.483Z,55.06
2023-12-31T16:21:45.694Z,54.90
2023-12-31T16:24:12.880Z,54.89
2023-12-31T16:26:39.871Z,54.81
2023-12-31T16:29:06.807Z,54.73
2023-12-31T16:31:33.919Z,54.79
2023-12-31T16:34:02.781Z,54.56
2023-12-31T16:36:32.527Z,54.65
2023-12-31T16:39:00.834Z,54.46
2023-12-31T16:41:28.237Z,54.39
2023-12-31T16:43:55.242Z,54.35
2023-12-31T16:46:22.178Z,54.38
2023-12-31T16:48:51.081Z,54.36
2023-12-31T16:51:18.350Z,54.20
2023-12-31T16:53:45.282Z,54.10
2023-12-31T16:56:12.524Z,54.12
2023-12-31T16:58:39.448Z,54.08
2023-12-31T17:01:06.460Z,54.30
2023-12-31T17:03:33.340Z,54.15
2023-12-31T17:06:00.350Z,54.12
2023-12-31T17:08:27.275Z,54.01
2023-12-31T17:10:55.519Z,54.07
2023-12-31T17:13:22.793Z,53.89
2023-12-31T17:15:49.860Z,53.81
2023-12-31T17:18:16.948Z,53.77
2023-12-31T17:20:44.155Z,53.75
2023-12-31T17:23:11.342Z,53.63
2023-12-31T17:25:38.335Z,53.85
2023-12-31T17:28:06.050Z,53.64
2023-12-31T17:30:33.702Z,53.72
2023-12-31T17:33:00.777Z,54.02
2023-12-31T17:35:27.952Z,53.89
2023-12-31T17:37:56.445Z,54.01
2023-12-31T17:40:23.636Z,54.07
2023-12-31T17:42:51.012Z,53.92
2023-12-31T17:45:17.940Z,54.03
2023-12-31T17:47:45.118Z,53.98
2023-12-31T17:50:12.308Z,53.87
2023-12-31T17:52:39.398Z,53.74
2023-12-31T17:55:07.586Z,53.75
2023-12-31T17:57:34.701Z,53.68
2023-12-31T18:00:01.845Z,53.93
2023-12-31T18:02:29.139Z,53.89
2023-12-31T18:04:56.421Z,53.93
2023-12-31T18:07:23.355Z,53.88
2023-12-31T18:09:50.390Z,53.93
2023-12-31T18:12:18.099Z,53.78
2023-12-31T18:14:45.073Z,53.82
2023-12-31T18:17:12.624Z,53.91
2023-12-31T18:19:41.008Z,53.80
2023-12-31T18:22:08.236Z,53.93
2023-12-31T18:24:37.311Z,53.80
2023-12-31T18:27:04.598Z,53.76
2023-12-31T18:29:31.531Z,53.72
2023-12-31T18:31:59.336Z,53.75
2023-12-31T18:34:26.905Z,53.78
2023-12-31T18:36:55.383Z,53.86
2023-12-31T18:39:23.860Z,53.89
2023-12-31T18:41:50.775Z,53.81
2023-12-31T18:44:18.745Z,53.89
2023-12-31T18:46:48.160Z,53.83
2023-12-31T18:49:16.822Z,53.78
2023-12-31T18:51:44.238Z,53.66
2023-12-31T18:54:12.138Z,53.74
2023-12-31T18:56:41.866Z,53.68
2023-12-31T18:59:10.849Z,53.70
2023-12-31T19:01:38.670Z,53.70
2023-12-31T19:04:08.502Z,53.63
2023-12-31T19:06:35.619Z,53.62
2023-12-31T19:09:04.596Z,53.74
2023-12-31T19:11:32.093Z,53.71
2023-12-31T19:13:59.382Z,53.73
2023-12-31T19:16:26.537Z,53.69
2023-12-31T19:18:58.096Z,53.64
2023-12-31T19:21:26.878Z,53.51
2023-12-31T19:23:55.163Z,53.64
2023-12-31T19:26:22.195Z,53.63
2023-12-31T19:28:50.931Z,53.65
2023-12-31T19:31:18.484Z,53.62
2023-12-31T19:33:46.302Z,53.51
2023-12-31T19:36:14.282Z,53.57
2023-12-31T19:38:41.225Z,53.56
2023-12-31T19:41:11.156Z,53.63
2023-12-31T19:43:56.496Z,53.48
2023-12-31T19:46:25.837Z,53.51
2023-12-31T19:48:53.106Z,53.51
2023-12-31T19:51:20.237Z,53.61
2023-12-31T19:53:48.281Z,53.53
2023-12-31T19:56:15.817Z,53.43
2023-12-31T19:58:49.460Z,53.54
2023-12-31T20:01:17.226Z,53.51
2023-12-31T20:03:46.218Z,53.45
2023-12-31T20:06:14.482Z,53.44
2023-12-31T20:08:41.489Z,53.43
2023-12-31T20:11:10.931Z,53.47
2023-12-31T20:13:40.942Z,53.53
2023-12-31T20:16:11.448Z,53.67
2023-12-31T20:18:38.575Z,53.49
2023-12-31T20:21:05.979Z,53.48
2023-12-31T20:23:33.065Z,53.39
2023-12-31T20:26:00.212Z,53.47
2023-12-31T20:28:27.708Z,53.36
2023-12-31T20:30:54.889Z,53.42
2023-12-31T20:33:22.766Z,53.39
2023-12-31T20:35:50.214Z,53.30
2023-12-31T20:38:17.211Z,53.34
2023-12-31T20:40:44.396Z,53.29
2023-12-31T20:43:12.075Z,53.34
2023-12-31T20:45:39.734Z,53.35
2023-12-31T20:48:08.740Z,53.41
2023-12-31T20:50:37.072Z,53.46
2023-12-31T20:53:04.913Z,53.56
2023-12-31T20:55:34.520Z,53.58
2023-12-31T20:58:02.684Z,53.56
2023-12-31T21:00:30.039Z,53.59
2023-12-31T21:02:57.158Z,53.66
2023-12-31T21:05:24.229Z,53.40
2023-12-31T21:07:51.707Z,53.50
2023-12-31T21:10:19.361Z,53.61
2023-12-31T21:12:46.678Z,53.56
2023-12-31T21:15:14.013Z,53.58
2023-12-31T21:17:45.424Z,53.66
2023-12-31T21:20:12.714Z,53.55
2023-12-31T21:22:39.899Z,53.59
2023-12-31T21:25:07.310Z,53.66
2023-12-31T21:27:34.396Z,53.58
2023-12-31T21:30:01.933Z,53.61
2023-12-31T21:32:29.105Z,53.65
2023-12-31T21:34:57.191Z,53.57
2023-12-31T21:37:24.665Z,53.63
2023-12-31T21:39:52.095Z,53.44
2023-12-31T21:42:19.443Z,53.47
2023-12-31T21:44:46.399Z,53.42
2023-12-31T21:47:14.926Z,53.38
2023-12-31T21:49:42.596Z,53.45
2023-12-31T21:52:10.270Z,53.47
2023-12-31T21:54:37.176Z,53.55
2023-12-31T21:57:08.359Z,53.64
2023-12-31T21:59:36.154Z,53.58
2023-12-31T22:02:03.127Z,53.43
2023-12-31T22:04:30.297Z,53.33
2023-12-31T22:06:57.342Z,53.33
2023-12-31T22:09:24.971Z,53.25
2023-12-31T22:11:51.894Z,53.42
2023-12-31T22:14:18.940Z,53.32
2023-12-31T22:16:48.832Z,53.37
2023-12-31T22:19:16.657Z,53.37
2023-12-31T22:21:45.628Z,53.22
2023-12-31T22:24:13.531Z,53.32
2023-12-31T22:26:41.268Z,53.35
2023-12-31T22:29:08.493Z,53.41
2023-12-31T22:31:35.794Z,53.22
2023-12-31T22:34:04.348Z,53.17
2023-12-31T22:36:31.354Z,53.31
2023-12-31T22:38:59.789Z,53.24
2023-12-31T22:41:34.404Z,53.12
2023-12-31T22:44:01.627Z,53.09
2023-12-31T22:46:29.959Z,53.05
2023-12-31T22:48:57.218Z,53.01
2023-12-31T22:51:24.823Z,53.04
2023-12-31T22:53:53.412Z,53.11
2023-12-31T22:56:20.674Z,52.99
2023-12-31T22:58:49.188Z,53.09
2023-12-31T23:01:19.567Z,53.09
2023-12-31T23:03:50.253Z,53.01
2023-12-31T23:06:18.007Z,53.02
2023-12-31T23:08:45.031Z,53.05
2023-12-31T23:11:12.195Z,53.09
2023-12-31T23:13:40.842Z,52.91
2023-12-31T23:16:08.376Z,53.16
2023-12-31T23:18:35.554Z,53.09
2023-12-31T23:21:03.162Z,53.09
2023-12-31T23:23:30.766Z,52.95
2023-12-31T23:26:01.792Z,53.04
2023-12-31T23:28:29.207Z,53.11
2023-12-31T23:30:56.245Z,53.08
2023-12-31T23:33:24.311Z,53.14
2023-12-31T23:35:51.401Z,53.07
2023-12-31T23:38:19.801Z,52.97
2023-12-31T23:40:50.927Z,52.93
2023-12-31T23:43:17.989Z,53.08
2023-12-31T23:45:46.624Z,53.00
2023-12-31T23:48:14.729Z,53.06
2023-12-31T23:50:42.920Z,52.95
2023-12-31T23:53:10.030Z,52.93
2023-12-31T23:55:37.187Z,53.04
2023-12-31T23:58:11.507Z,52.95
